Time;durP1;ratioP1;P1;durP2;ratioP2;P2;SDS_P1;SDS_P2;PMS_P1;PMS_P2;Temp;Humidity;BMP_temperature;BMP_pressure;BME280_temperature;BME280_humidity;BME280_pressure;Samples;Min_cycle;Max_cycle;Signal;HPM_P1;HPM_P2
2024/04/11 00:00:47;;;;;;;4.97;1.58;;;12.30;99.90;;;;;;4451893;26;20530;-67
2024/04/11 00:02:48;;;;;;;5.75;2.00;;;12.30;99.90;;;;;;4452459;26;20016;-67
2024/04/11 00:04:49;;;;;;;2.63;1.40;;;12.20;99.90;;;;;;4450341;26;20340;-67
2024/04/11 00:06:49;;;;;;;3.15;1.48;;;12.30;99.90;;;;;;4454322;26;20019;-67
2024/04/11 00:08:50;;;;;;;3.42;1.33;;;12.30;99.90;;;;;;4450707;26;20019;-67
2024/04/11 00:10:51;;;;;;;3.08;1.58;;;12.30;99.90;;;;;;4443311;26;20012;-67
2024/04/11 00:12:51;;;;;;;6.60;1.90;;;12.30;99.90;;;;;;4453460;26;20341;-67
2024/04/11 00:14:52;;;;;;;3.90;1.70;;;12.30;99.90;;;;;;4455218;26;20042;-67
2024/04/11 00:16:52;;;;;;;4.55;1.95;;;12.30;99.90;;;;;;4451005;26;20515;-67
2024/04/11 00:18:53;;;;;;;4.43;1.40;;;12.20;99.90;;;;;;4456769;26;20127;-67
2024/04/11 00:20:54;;;;;;;4.50;1.70;;;12.20;99.90;;;;;;4453867;26;20004;-67
2024/04/11 00:22:55;;;;;;;4.97;1.60;;;12.20;99.90;;;;;;4458319;26;20008;-68
2024/04/11 00:24:55;;;;;;;3.72;1.40;;;12.20;99.90;;;;;;4454519;26;20019;-67
2024/04/11 00:26:56;;;;;;;5.95;1.75;;;12.20;99.90;;;;;;4452739;26;20008;-67
2024/04/11 00:28:57;;;;;;;4.35;1.58;;;12.20;99.90;;;;;;4453907;26;20011;-67
2024/04/11 00:30:57;;;;;;;3.58;1.35;;;12.10;99.90;;;;;;4453566;26;20052;-68
2024/04/11 00:32:59;;;;;;;5.28;1.88;;;12.10;99.90;;;;;;4460410;26;20023;-67
2024/04/11 00:35:04;;;;;;;3.93;1.57;;;12.10;99.90;;;;;;4456832;26;20073;-67
2024/04/11 00:37:05;;;;;;;4.78;1.48;;;12.10;99.90;;;;;;4463803;26;20012;-61
2024/04/11 00:39:05;;;;;;;4.43;1.48;;;12.10;99.90;;;;;;4461357;26;20023;-64
2024/04/11 00:41:07;;;;;;;6.38;1.48;;;12.10;99.90;;;;;;4461656;26;20615;-64
2024/04/11 00:43:11;;;;;;;4.65;1.52;;;12.00;99.90;;;;;;4460622;26;20019;-64
2024/04/11 00:45:12;;;;;;;4.88;1.17;;;12.00;99.90;;;;;;4432395;26;20555;-65
2024/04/11 00:47:12;;;;;;;2.83;1.40;;;12.00;99.90;;;;;;4453480;26;20004;-64
2024/04/11 00:49:15;;;;;;;3.00;1.42;;;12.00;99.90;;;;;;4461741;26;20038;-65
2024/04/11 00:51:16;;;;;;;4.72;1.40;;;12.00;99.90;;;;;;4450791;26;20492;-64
2024/04/11 00:53:18;;;;;;;2.72;1.20;;;12.00;99.90;;;;;;4457892;26;20011;-64
2024/04/11 00:55:19;;;;;;;5.65;1.55;;;12.10;99.90;;;;;;4457256;26;20008;-64
2024/04/11 00:57:20;;;;;;;2.97;1.30;;;12.10;99.90;;;;;;4451606;26;20020;-64
2024/04/11 00:59:21;;;;;;;3.80;1.48;;;12.10;99.90;;;;;;4454693;26;20028;-64
2024/04/11 01:01:22;;;;;;;4.25;1.55;;;12.10;99.90;;;;;;4454497;26;20460;-64
2024/04/11 01:03:23;;;;;;;5.32;1.48;;;12.10;99.90;;;;;;4452822;26;20957;-64
2024/04/11 01:05:23;;;;;;;8.18;1.92;;;12.00;99.90;;;;;;4466310;26;20043;-64
2024/04/11 01:07:24;;;;;;;5.22;1.20;;;12.00;99.90;;;;;;4459980;26;20019;-64
2024/04/11 01:09:24;;;;;;;3.92;1.75;;;12.00;99.90;;;;;;4452904;26;20023;-64
2024/04/11 01:11:25;;;;;;;4.38;1.25;;;12.00;99.90;;;;;;4457752;26;20063;-64
2024/04/11 01:13:26;;;;;;;4.13;1.42;;;12.00;99.90;;;;;;4453332;26;20056;-64
2024/04/11 01:15:27;;;;;;;4.35;1.20;;;12.00;99.90;;;;;;4448769;26;20321;-64
2024/04/11 01:17:27;;;;;;;3.65;1.73;;;12.00;99.90;;;;;;4459068;26;20000;-64
2024/04/11 01:19:28;;;;;;;6.40;1.63;;;12.00;99.90;;;;;;4463983;26;20005;-64
2024/04/11 01:21:28;;;;;;;3.22;1.30;;;12.00;99.90;;;;;;4461001;26;20428;-64
2024/04/11 01:23:29;;;;;;;5.45;1.80;;;12.00;99.90;;;;;;4454142;26;20044;-64
2024/04/11 01:25:30;;;;;;;2.65;1.33;;;11.90;99.90;;;;;;4467753;26;20043;-64
2024/04/11 01:27:30;;;;;;;2.50;1.17;;;12.00;99.90;;;;;;4465891;26;20367;-64
2024/04/11 01:29:31;;;;;;;7.05;1.45;;;12.00;99.90;;;;;;4460907;26;20018;-64
2024/04/11 01:31:37;;;;;;;2.42;1.30;;;12.00;99.90;;;;;;4454964;26;20004;-64
2024/04/11 01:33:38;;;;;;;2.92;1.38;;;12.00;99.90;;;;;;4457773;26;20004;-65
2024/04/11 01:35:39;;;;;;;5.05;1.13;;;12.00;99.90;;;;;;4464456;26;20000;-64
2024/04/11 01:37:39;;;;;;;4.93;1.58;;;11.90;99.90;;;;;;4464861;26;20043;-64
2024/04/11 01:39:40;;;;;;;2.53;1.45;;;11.90;99.90;;;;;;4459040;26;20012;-64
2024/04/11 01:41:41;;;;;;;3.25;1.38;;;11.90;99.90;;;;;;4469915;26;20015;-64
2024/04/11 01:43:42;;;;;;;3.10;1.20;;;11.90;99.90;;;;;;4461694;26;20356;-64
2024/04/11 01:45:42;;;;;;;4.55;1.60;;;11.90;99.90;;;;;;4452416;26;20383;-64
2024/04/11 01:47:46;;;;;;;3.55;1.20;;;11.90;99.90;;;;;;4468622;26;20008;-67
2024/04/11 01:49:47;;;;;;;1.90;0.98;;;11.90;99.90;;;;;;4464201;26;19999;-68
2024/04/11 01:51:47;;;;;;;8.63;1.55;;;11.90;99.90;;;;;;4453739;26;20047;-67
2024/04/11 01:53:49;;;;;;;2.55;1.27;;;11.90;99.90;;;;;;4467936;26;20497;-67
2024/04/11 01:55:50;;;;;;;3.80;1.20;;;11.80;99.90;;;;;;4456862;26;20014;-67
2024/04/11 01:57:50;;;;;;;5.75;1.30;;;11.90;99.90;;;;;;4466268;26;20003;-67
2024/04/11 01:59:53;;;;;;;3.90;1.02;;;11.80;99.90;;;;;;4469479;26;20348;-67
2024/04/11 02:01:54;;;;;;;2.72;1.05;;;11.80;99.90;;;;;;4457156;26;20075;-67
2024/04/11 02:03:54;;;;;;;3.63;1.42;;;11.80;99.90;;;;;;4450547;26;20095;-67
2024/04/11 02:05:57;;;;;;;5.07;1.17;;;11.80;99.90;;;;;;4457076;26;20008;-68
2024/04/11 02:07:57;;;;;;;4.35;1.48;;;11.80;99.90;;;;;;4460691;26;20014;-67
2024/04/11 02:09:58;;;;;;;3.15;1.38;;;11.80;99.90;;;;;;4460779;26;20013;-67
2024/04/11 02:11:58;;;;;;;3.90;1.23;;;11.80;99.90;;;;;;4452420;26;20022;-67
2024/04/11 02:14:00;;;;;;;3.58;1.33;;;11.80;99.90;;;;;;4451563;26;20067;-67
2024/04/11 02:16:01;;;;;;;2.73;1.03;;;11.80;99.90;;;;;;4464641;26;20355;-67
2024/04/11 02:18:02;;;;;;;3.95;1.10;;;11.80;99.90;;;;;;4464461;26;20008;-68
2024/04/11 02:20:10;;;;;;;3.53;1.63;;;11.80;99.90;;;;;;4459353;26;20746;-69
2024/04/11 02:22:10;;;;;;;3.50;1.13;;;11.80;99.90;;;;;;4452986;26;20468;-68
2024/04/11 02:24:16;;;;;;;4.82;1.08;;;11.80;99.90;;;;;;4466892;26;20000;-67
2024/04/11 02:26:17;;;;;;;5.05;1.30;;;11.80;99.90;;;;;;4460626;26;20022;-67
2024/04/11 02:28:19;;;;;;;3.83;1.50;;;11.80;99.90;;;;;;4462818;26;20043;-67
2024/04/11 02:30:20;;;;;;;3.30;1.10;;;11.80;99.90;;;;;;4456972;26;20022;-68
2024/04/11 02:32:20;;;;;;;4.07;1.45;;;11.80;99.90;;;;;;4444329;26;20016;-67
2024/04/11 02:34:22;;;;;;;4.13;1.40;;;11.90;99.90;;;;;;4450267;26;20374;-67
2024/04/11 02:36:23;;;;;;;4.97;1.42;;;11.80;99.90;;;;;;4452258;26;20015;-67
2024/04/11 02:38:25;;;;;;;3.13;1.25;;;11.80;99.90;;;;;;4455959;26;20018;-67
2024/04/11 02:40:27;;;;;;;3.08;1.00;;;11.80;99.90;;;;;;4450224;26;20522;-67
2024/04/11 02:42:28;;;;;;;1.40;0.90;;;11.90;99.90;;;;;;4428044;26;20020;-67
2024/04/11 02:44:28;;;;;;;2.35;1.15;;;11.90;99.90;;;;;;4463059;26;20022;-67
2024/04/11 02:46:29;;;;;;;2.58;1.05;;;11.90;99.90;;;;;;4453338;26;20058;-67
2024/04/11 02:48:30;;;;;;;4.63;1.27;;;11.90;99.90;;;;;;4459261;26;20023;-67
2024/04/11 02:50:30;;;;;;;4.30;1.27;;;11.90;99.90;;;;;;4458300;26;20015;-68
2024/04/11 02:52:31;;;;;;;2.30;0.88;;;11.90;99.90;;;;;;4453257;26;20004;-68
2024/04/11 02:54:31;;;;;;;3.33;1.08;;;11.90;99.90;;;;;;4453890;26;20041;-68
2024/04/11 02:56:32;;;;;;;3.72;1.45;;;11.90;99.90;;;;;;4460673;26;20040;-67
2024/04/11 02:58:39;;;;;;;4.20;1.27;;;11.90;99.90;;;;;;4467403;26;20023;-68
2024/04/11 03:00:40;;;;;;;4.32;1.30;;;11.90;99.90;;;;;;4464579;26;20463;-67
2024/04/11 03:02:40;;;;;;;3.72;1.33;;;11.90;99.90;;;;;;4475346;26;20035;-67
2024/04/11 03:04:43;;;;;;;5.00;1.60;;;11.90;99.90;;;;;;4464144;26;20520;-67
2024/04/11 03:06:43;;;;;;;3.92;1.27;;;11.90;99.90;;;;;;4463520;26;20003;-67
2024/04/11 03:08:50;;;;;;;2.38;1.27;;;12.00;99.90;;;;;;4461906;26;20008;-68
2024/04/11 03:10:50;;;;;;;2.30;0.95;;;12.00;99.90;;;;;;4467282;26;20464;-67
2024/04/11 03:12:51;;;;;;;3.90;1.00;;;12.00;99.90;;;;;;4466772;26;20000;-67
2024/04/11 03:14:52;;;;;;;4.80;1.05;;;12.00;99.90;;;;;;4463317;26;20092;-67
2024/04/11 03:16:53;;;;;;;3.92;1.27;;;11.90;99.90;;;;;;4452323;26;20486;-67
2024/04/11 03:18:53;;;;;;;3.70;1.60;;;12.00;99.90;;;;;;4455729;26;20018;-67
2024/04/11 03:20:55;;;;;;;3.28;1.60;;;12.00;99.90;;;;;;4460452;26;20399;-67
2024/04/11 03:22:56;;;;;;;1.90;1.17;;;12.00;99.90;;;;;;4459914;26;20321;-67
2024/04/11 03:24:57;;;;;;;2.60;1.08;;;12.00;99.90;;;;;;4466393;26;20010;-68
2024/04/11 03:27:00;;;;;;;2.28;1.08;;;12.00;99.90;;;;;;4456750;26;20003;-67
2024/04/11 03:29:01;;;;;;;3.38;1.30;;;12.00;99.90;;;;;;4456401;26;20074;-67
2024/04/11 03:31:08;;;;;;;5.28;1.33;;;11.90;99.90;;;;;;4462217;26;20011;-67
2024/04/11 03:33:10;;;;;;;4.95;1.30;;;12.00;99.90;;;;;;4479405;26;20445;-67
2024/04/11 03:35:10;;;;;;;4.95;1.52;;;12.00;99.90;;;;;;4455270;26;20012;-68
2024/04/11 03:37:11;;;;;;;3.97;1.17;;;12.00;99.90;;;;;;4458612;26;20041;-67
2024/04/11 03:39:12;;;;;;;3.92;0.93;;;12.00;99.90;;;;;;4470458;26;20110;-67
2024/04/11 03:41:14;;;;;;;6.50;1.63;;;12.00;99.90;;;;;;4460499;26;20015;-67
2024/04/11 03:43:14;;;;;;;2.97;1.50;;;12.00;99.90;;;;;;4460991;26;20420;-68
2024/04/11 03:45:22;;;;;;;6.57;1.67;;;12.00;99.90;;;;;;4464740;26;20008;-67
2024/04/11 03:47:23;;;;;;;2.85;1.20;;;12.00;99.90;;;;;;4459794;26;20357;-68
2024/04/11 03:49:24;;;;;;;2.40;1.10;;;12.00;99.90;;;;;;4464429;26;20398;-67
2024/04/11 03:51:28;;;;;;;1.67;0.70;;;12.10;99.90;;;;;;4454390;26;20005;-67
2024/04/11 03:53:28;;;;;;;4.97;1.35;;;12.10;99.90;;;;;;4467333;26;20393;-68
2024/04/11 03:55:29;;;;;;;3.65;1.35;;;12.10;99.90;;;;;;4459646;26;20006;-67
2024/04/11 03:57:30;;;;;;;5.72;1.70;;;12.10;99.90;;;;;;4463097;26;20453;-67
2024/04/11 03:59:30;;;;;;;5.25;1.20;;;12.20;99.90;;;;;;4455288;26;20015;-67
2024/04/11 04:01:31;;;;;;;4.88;1.17;;;12.10;99.90;;;;;;4452241;26;20027;-67
2024/04/11 04:03:35;;;;;;;3.42;1.10;;;12.20;99.90;;;;;;4457464;26;20008;-67
2024/04/11 04:05:35;;;;;;;4.93;1.40;;;12.20;99.90;;;;;;4451730;26;20089;-67
2024/04/11 04:07:36;;;;;;;5.50;1.52;;;12.20;99.90;;;;;;4458340;26;20449;-70
2024/04/11 04:09:37;;;;;;;5.85;1.23;;;12.20;99.90;;;;;;4464826;26;20007;-66
2024/04/11 04:11:38;;;;;;;4.82;1.40;;;12.20;99.90;;;;;;4457629;26;20019;-66
2024/04/11 04:13:40;;;;;;;2.40;1.13;;;12.20;99.90;;;;;;4449864;26;19999;-66
2024/04/11 04:15:41;;;;;;;3.42;1.33;;;12.20;99.90;;;;;;4452623;26;20022;-65
2024/04/11 04:17:43;;;;;;;6.03;1.67;;;12.20;99.90;;;;;;4458904;26;20056;-66
2024/04/11 04:19:43;;;;;;;4.88;1.45;;;12.20;99.90;;;;;;4450519;26;20352;-66
2024/04/11 04:21:44;;;;;;;3.45;0.88;;;12.20;99.90;;;;;;4467827;26;20007;-65
2024/04/11 04:23:48;;;;;;;8.02;1.40;;;12.20;99.90;;;;;;4451193;26;20019;-66
2024/04/11 04:26:05;;;;;;;2.95;1.27;;;12.20;99.90;;;;;;4465506;26;20455;-66
2024/04/11 04:28:07;;;;;;;4.18;1.40;;;12.30;99.90;;;;;;4455055;26;20550;-66
2024/04/11 04:30:09;;;;;;;5.13;1.60;;;12.30;99.90;;;;;;4477328;26;20460;-67
2024/04/11 04:32:12;;;;;;;;;;;12.30;99.90;;;;;;4436546;26;20036;-66
2024/04/11 04:34:15;;;;;;;8.32;1.55;;;12.20;99.90;;;;;;4460922;26;19925;-65
2024/04/11 04:36:19;;;;;;;2.00;1.23;;;12.20;99.90;;;;;;4456248;26;20012;-67
2024/04/11 04:38:20;;;;;;;4.53;1.38;;;12.30;99.90;;;;;;4457057;26;20007;-65
2024/04/11 04:40:21;;;;;;;3.33;1.23;;;12.30;99.90;;;;;;4459822;26;20449;-64
2024/04/11 04:42:23;;;;;;;4.10;1.48;;;12.20;99.90;;;;;;4460175;26;20014;-64
2024/04/11 04:44:23;;;;;;;3.58;1.27;;;12.20;99.90;;;;;;4453798;26;20023;-64
2024/04/11 04:46:26;;;;;;;2.90;1.00;;;12.20;99.90;;;;;;4451036;26;20371;-65
2024/04/11 04:48:27;;;;;;;3.28;1.05;;;12.20;99.90;;;;;;4461457;26;20091;-65
2024/04/11 04:50:28;;;;;;;7.75;1.38;;;12.20;99.90;;;;;;4459712;26;20578;-64
2024/04/11 04:52:29;;;;;;;5.60;1.42;;;12.10;99.90;;;;;;4459416;26;20011;-64
2024/04/11 04:54:30;;;;;;;3.92;1.23;;;12.10;99.90;;;;;;4447940;26;20047;-64
2024/04/11 04:56:34;;;;;;;5.15;1.42;;;12.10;99.90;;;;;;4456749;26;20020;-64
2024/04/11 04:58:36;;;;;;;4.93;1.30;;;12.10;99.90;;;;;;4462616;26;20000;-64
2024/04/11 05:00:37;;;;;;;7.10;1.15;;;12.10;99.90;;;;;;4456358;26;20008;-64
2024/04/11 05:02:39;;;;;;;5.20;1.20;;;12.10;99.90;;;;;;4454449;26;20439;-64
2024/04/11 05:04:40;;;;;;;5.10;1.45;;;12.10;99.90;;;;;;4464936;26;20008;-64
2024/04/11 05:06:40;;;;;;;6.07;1.23;;;12.10;99.90;;;;;;4457973;26;20414;-64
2024/04/11 05:08:48;;;;;;;8.57;1.50;;;12.10;99.90;;;;;;4461251;26;20008;-64
2024/04/11 05:10:55;;;;;;;4.82;1.40;;;12.10;99.90;;;;;;4465798;26;20473;-64
2024/04/11 05:12:59;;;;;;;4.45;1.70;;;12.10;99.90;;;;;;4461521;26;20031;-64
2024/04/11 05:15:12;;;;;;;3.80;1.15;;;12.10;99.90;;;;;;4450495;26;20019;-64
2024/04/11 05:17:13;;;;;;;;;;;12.10;99.90;;;;;;4457264;26;20007;-62
2024/04/11 05:19:15;;;;;;;5.10;1.25;;;12.20;99.90;;;;;;4466358;26;19936;-59
2024/04/11 05:21:23;;;;;;;6.30;1.50;;;12.10;99.90;;;;;;4460110;26;20180;-59
2024/04/11 05:23:32;;;;;;;4.68;1.67;;;12.10;99.90;;;;;;4457614;26;20004;-58
2024/04/11 05:25:33;;;;;;;5.30;1.80;;;12.10;99.90;;;;;;4467807;26;20027;-59
2024/04/11 05:27:37;;;;;;;6.30;1.85;;;12.10;99.90;;;;;;4473078;26;19999;-59
2024/04/11 05:29:38;;;;;;;9.10;2.42;;;12.10;99.90;;;;;;4442971;26;20008;-59
2024/04/11 05:31:38;;;;;;;7.85;2.67;;;12.10;99.90;;;;;;4471904;26;20012;-59
2024/04/11 05:33:40;;;;;;;10.80;2.88;;;12.10;99.90;;;;;;4441727;26;20088;-60
2024/04/11 05:35:41;;;;;;;7.23;2.23;;;12.10;99.90;;;;;;4449400;26;20449;-59
2024/04/11 05:37:45;;;;;;;8.43;2.65;;;12.20;99.90;;;;;;4447965;26;20015;-59
2024/04/11 05:39:45;;;;;;;8.45;2.60;;;12.10;99.90;;;;;;4459845;26;20012;-59
2024/04/11 05:41:48;;;;;;;7.00;2.40;;;12.20;99.90;;;;;;4426828;26;20347;-59
2024/04/11 05:43:52;;;;;;;8.35;1.90;;;12.20;99.90;;;;;;4453564;26;20026;-59
2024/04/11 05:45:53;;;;;;;5.78;1.77;;;12.30;99.90;;;;;;4443638;26;20008;-59
2024/04/11 05:47:53;;;;;;;7.00;1.83;;;12.20;99.90;;;;;;4452665;26;20370;-59
2024/04/11 05:49:54;;;;;;;4.60;1.65;;;12.20;99.90;;;;;;4461465;26;20034;-59
2024/04/11 05:51:55;;;;;;;6.85;1.60;;;12.30;99.90;;;;;;4439734;26;20007;-58
2024/04/11 05:53:57;;;;;;;6.30;1.77;;;12.30;99.90;;;;;;4451736;26;20149;-59
2024/04/11 05:55:58;;;;;;;5.13;1.33;;;12.30;99.90;;;;;;4450246;26;20007;-59
2024/04/11 05:57:58;;;;;;;3.08;1.30;;;12.30;99.90;;;;;;4468328;26;20452;-58
2024/04/11 05:59:59;;;;;;;4.93;1.50;;;12.30;99.90;;;;;;4454505;26;20012;-59
2024/04/11 06:02:00;;;;;;;5.60;1.60;;;12.40;99.90;;;;;;4450100;26;20030;-59
2024/04/11 06:04:01;;;;;;;3.85;1.70;;;12.40;99.90;;;;;;4454975;26;20491;-59
2024/04/11 06:06:03;;;;;;;6.00;2.00;;;12.40;99.90;;;;;;4448127;26;20020;-59
2024/04/11 06:08:08;;;;;;;5.60;1.77;;;12.40;99.90;;;;;;4457803;26;20356;-59
2024/04/11 06:10:11;;;;;;;5.55;1.75;;;12.40;99.90;;;;;;4451178;26;20003;-60
2024/04/11 06:12:12;;;;;;;3.47;1.20;;;12.40;99.90;;;;;;4450283;26;20555;-59
2024/04/11 06:14:13;;;;;;;4.60;1.73;;;12.40;99.90;;;;;;4455281;26;20034;-59
2024/04/11 06:16:19;;;;;;;6.70;1.55;;;12.50;99.90;;;;;;4448767;26;20014;-59
2024/04/11 06:18:21;;;;;;;5.65;1.63;;;12.40;99.90;;;;;;4482778;26;20442;-58
2024/04/11 06:20:24;;;;;;;4.32;1.75;;;12.40;99.90;;;;;;4482032;26;20026;-63
2024/04/11 06:22:26;;;;;;;2.47;1.25;;;12.40;99.90;;;;;;4482771;26;20012;-59
2024/04/11 06:24:26;;;;;;;3.35;1.25;;;12.50;99.90;;;;;;4488827;26;20018;-59
2024/04/11 06:26:27;;;;;;;8.50;2.00;;;12.40;99.90;;;;;;4477890;26;20018;-59
2024/04/11 06:28:28;;;;;;;4.80;1.25;;;12.40;99.90;;;;;;4470614;26;20023;-65
2024/04/11 06:30:29;;;;;;;5.10;1.50;;;12.50;99.90;;;;;;4449742;26;20016;-65
2024/04/11 06:32:31;;;;;;;5.90;1.90;;;12.50;99.90;;;;;;4459101;26;20019;-65
2024/04/11 06:34:32;;;;;;;4.72;1.77;;;12.50;99.90;;;;;;4429796;26;20463;-65
2024/04/11 06:36:33;;;;;;;6.18;1.95;;;12.50;99.90;;;;;;4453577;26;20467;-65
2024/04/11 06:38:33;;;;;;;7.75;2.10;;;12.50;99.90;;;;;;4455843;26;20012;-65
2024/04/11 06:40:34;;;;;;;5.25;1.90;;;12.40;99.90;;;;;;4454913;26;20019;-65
2024/04/11 06:42:40;;;;;;;3.97;1.88;;;12.40;99.90;;;;;;4454308;26;20459;-65
2024/04/11 06:44:41;;;;;;;8.00;1.90;;;12.50;99.90;;;;;;4456731;26;20366;-65
2024/04/11 06:46:44;;;;;;;5.80;1.80;;;12.50;99.90;;;;;;4455281;26;20080;-65
2024/04/11 06:48:45;;;;;;;3.22;1.73;;;12.50;99.90;;;;;;4449063;26;20015;-65
2024/04/11 06:50:47;;;;;;;5.32;2.00;;;12.50;99.90;;;;;;4451417;26;20369;-65
2024/04/11 06:52:49;;;;;;;4.60;1.48;;;12.60;99.90;;;;;;4450560;26;20016;-65
2024/04/11 06:54:49;;;;;;;5.53;1.67;;;12.60;99.90;;;;;;4456858;26;20008;-65
2024/04/11 06:56:52;;;;;;;5.40;1.83;;;12.60;99.90;;;;;;4452009;26;20656;-65
2024/04/11 06:58:55;;;;;;;5.43;1.98;;;12.60;99.90;;;;;;4454620;26;20396;-65
2024/04/11 07:00:58;;;;;;;6.10;1.95;;;12.60;99.90;;;;;;4449831;26;20078;-65
2024/04/11 07:03:02;;;;;;;5.43;1.75;;;12.70;99.90;;;;;;4458194;26;20027;-65
2024/04/11 07:05:03;;;;;;;5.60;2.03;;;12.70;99.90;;;;;;4453391;26;20012;-66
2024/04/11 07:07:08;;;;;;;5.55;1.55;;;12.70;99.90;;;;;;4446857;26;20073;-65
2024/04/11 07:09:11;;;;;;;6.78;1.92;;;12.70;99.90;;;;;;4494811;26;20021;-75
2024/04/11 07:11:27;;;;;;;4.72;1.40;;;12.80;99.90;;;;;;4494465;26;19998;-64
2024/04/11 07:13:28;;;;;;;4.88;1.40;;;12.80;99.90;;;;;;4521633;26;20037;-64
2024/04/11 07:15:29;;;;;;;4.28;1.60;;;12.80;99.90;;;;;;4508523;26;21206;-59
2024/04/11 07:17:29;;;;;;;8.32;2.00;;;12.90;99.90;;;;;;4500553;26;20034;-64
2024/04/11 07:19:30;;;;;;;5.60;1.50;;;12.90;99.90;;;;;;4509522;26;20000;-76
2024/04/11 07:21:34;;;;;;;5.90;2.00;;;12.90;99.90;;;;;;4494030;26;20007;-64
2024/04/11 07:23:35;;;;;;;4.85;1.70;;;12.90;99.90;;;;;;4497839;26;19994;-65
2024/04/11 07:25:36;;;;;;;5.15;1.77;;;13.00;99.90;;;;;;4495007;26;20175;-65
2024/04/11 07:27:36;;;;;;;6.20;2.20;;;12.90;99.90;;;;;;4492538;26;20023;-65
2024/04/11 07:29:38;;;;;;;5.72;1.70;;;13.00;99.90;;;;;;4495617;26;20003;-65
2024/04/11 07:31:41;;;;;;;4.03;1.77;;;13.10;99.90;;;;;;4445359;26;20004;-65
2024/04/11 07:33:42;;;;;;;5.93;1.83;;;13.10;99.90;;;;;;4458897;26;20008;-64
2024/04/11 07:35:44;;;;;;;8.77;1.92;;;13.10;99.90;;;;;;4454062;26;20015;-64
2024/04/11 07:37:45;;;;;;;8.60;1.90;;;13.20;99.90;;;;;;4453666;26;20614;-71
2024/04/11 07:39:46;;;;;;;3.90;1.52;;;13.20;99.90;;;;;;4452798;26;20221;-71
2024/04/11 07:41:46;;;;;;;6.80;1.65;;;13.20;99.90;;;;;;4455135;26;20001;-70
2024/04/11 07:43:51;;;;;;;4.80;1.52;;;13.20;99.90;;;;;;4465775;26;20004;-71
2024/04/11 07:45:52;;;;;;;4.32;1.70;;;13.30;99.90;;;;;;4458574;26;20016;-71
2024/04/11 07:47:58;;;;;;;5.20;1.58;;;13.30;99.90;;;;;;4455327;26;20004;-71
2024/04/11 07:49:59;;;;;;;6.55;1.67;;;13.30;99.90;;;;;;4453453;26;20020;-71
2024/04/11 07:51:59;;;;;;;4.28;1.42;;;13.40;99.90;;;;;;4448535;26;20023;-71
2024/04/11 07:54:03;;;;;;;3.47;1.40;;;13.40;99.90;;;;;;4458994;26;20014;-70
2024/04/11 07:56:04;;;;;;;8.30;1.88;;;13.40;99.90;;;;;;4457016;26;20329;-70
2024/04/11 07:58:05;;;;;;;6.13;1.75;;;13.40;99.90;;;;;;4452113;26;20053;-70
2024/04/11 08:00:20;;;;;;;8.90;1.98;;;13.50;99.90;;;;;;4450279;26;20081;-71
2024/04/11 08:02:21;;;;;;;7.07;1.98;;;13.50;99.90;;;;;;4457536;26;20009;-71
2024/04/11 08:04:21;;;;;;;7.28;1.85;;;13.50;99.90;;;;;;4454186;26;20055;-71
2024/04/11 08:06:22;;;;;;;4.82;1.70;;;13.50;99.90;;;;;;4449175;26;20554;-71
2024/04/11 08:08:23;;;;;;;4.30;1.60;;;13.50;99.90;;;;;;4452434;26;20352;-71
2024/04/11 08:10:27;;;;;;;6.13;2.13;;;13.60;99.90;;;;;;4451168;26;20078;-71
2024/04/11 08:12:27;;;;;;;6.82;1.73;;;13.60;99.90;;;;;;4452657;26;20484;-69
2024/04/11 08:14:28;;;;;;;6.90;1.52;;;13.60;99.90;;;;;;4450629;26;22828;-70
2024/04/11 08:16:29;;;;;;;3.45;1.60;;;13.60;99.90;;;;;;4454434;26;20023;-70
2024/04/11 08:18:29;;;;;;;6.25;1.67;;;13.70;99.90;;;;;;4454229;26;20019;-70
2024/04/11 08:20:30;;;;;;;5.97;1.60;;;13.70;99.90;;;;;;4455417;26;20401;-70
2024/04/11 08:22:32;;;;;;;3.50;1.92;;;13.70;99.90;;;;;;4455695;26;20016;-70
2024/04/11 08:24:32;;;;;;;3.92;1.25;;;13.80;99.90;;;;;;4456995;26;20022;-71
2024/04/11 08:26:33;;;;;;;5.30;1.58;;;13.80;99.90;;;;;;4451037;26;20012;-71
2024/04/11 08:28:37;;;;;;;5.63;1.80;;;13.80;99.90;;;;;;4453051;26;20010;-70
2024/04/11 08:30:37;;;;;;;5.55;1.90;;;13.90;99.90;;;;;;4453344;26;20020;-70
2024/04/11 08:32:47;;;;;;;6.63;1.80;;;13.90;99.90;;;;;;4449626;26;20341;-70
2024/04/11 08:34:49;;;;;;;4.85;1.23;;;14.00;99.90;;;;;;4489860;26;21101;-71
2024/04/11 08:36:49;;;;;;;5.47;1.60;;;14.00;99.90;;;;;;4501147;26;20572;-71
2024/04/11 08:38:50;;;;;;;5.68;1.65;;;14.00;99.90;;;;;;4480956;26;19995;-70
2024/04/11 08:40:51;;;;;;;5.25;2.15;;;14.10;99.90;;;;;;4486551;26;20033;-71
2024/04/11 08:42:52;;;;;;;7.50;1.80;;;14.10;99.90;;;;;;4488500;26;20012;-71
2024/04/11 08:44:57;;;;;;;4.40;1.55;;;14.20;99.90;;;;;;4481420;26;20018;-71
2024/04/11 08:46:58;;;;;;;6.18;1.70;;;14.20;99.90;;;;;;4472933;26;20014;-69
2024/04/11 08:48:58;;;;;;;6.57;1.52;;;14.20;99.90;;;;;;4479765;26;20360;-74
2024/04/11 08:51:04;;;;;;;5.40;1.42;;;14.20;99.90;;;;;;4483859;26;20062;-75
2024/04/11 08:53:09;;;;;;;3.53;1.42;;;14.30;99.90;;;;;;4486926;26;20421;-75
2024/04/11 08:55:13;;;;;;;4.10;1.38;;;14.30;99.90;;;;;;4488328;26;20007;-73
2024/04/11 08:57:14;;;;;;;5.15;1.60;;;14.30;99.90;;;;;;4487507;26;19999;-75
2024/04/11 08:59:16;;;;;;;2.63;1.17;;;14.30;99.90;;;;;;4492256;26;20008;-75
2024/04/11 09:01:19;;;;;;;4.47;1.40;;;14.40;99.90;;;;;;4499484;26;21663;-75
2024/04/11 09:03:22;;;;;;;4.53;1.30;;;14.40;99.90;;;;;;4497650;26;20417;-75
2024/04/11 09:05:23;;;;;;;4.03;1.40;;;14.40;99.90;;;;;;4488991;26;20480;-75
2024/04/11 09:07:23;;;;;;;7.15;1.80;;;14.40;99.90;;;;;;4492943;26;20010;-75
2024/04/11 09:09:24;;;;;;;6.32;1.73;;;14.40;99.90;;;;;;4497146;26;20022;-75
2024/04/11 09:11:26;;;;;;;3.97;1.17;;;14.40;99.90;;;;;;4490761;26;20079;-75
2024/04/11 09:13:26;;;;;;;3.37;1.27;;;14.40;99.90;;;;;;4493803;26;20011;-75
2024/04/11 09:15:27;;;;;;;4.32;1.60;;;14.40;99.90;;;;;;4495023;26;20022;-74
2024/04/11 09:17:37;;;;;;;4.18;1.50;;;14.40;99.90;;;;;;4506047;26;20034;-67
2024/04/11 09:19:41;;;;;;;5.80;1.90;;;14.40;99.90;;;;;;4501379;26;20025;-75
2024/04/11 09:21:45;;;;;;;4.07;1.50;;;14.40;99.90;;;;;;4492128;26;20091;-74
2024/04/11 09:23:47;;;;;;;4.18;1.60;;;14.40;99.90;;;;;;4495908;26;20002;-74
2024/04/11 09:25:47;;;;;;;4.07;1.63;;;14.40;99.90;;;;;;4492973;26;20023;-74
2024/04/11 09:27:58;;;;;;;4.70;1.52;;;14.40;99.90;;;;;;4498781;26;20038;-74
2024/04/11 09:29:59;;;;;;;4.25;1.65;;;14.50;99.90;;;;;;4451712;26;20015;-73
2024/04/11 09:32:03;;;;;;;4.38;1.45;;;14.50;99.90;;;;;;4450581;26;20089;-73
2024/04/11 09:34:12;;;;;;;6.32;1.58;;;14.40;99.90;;;;;;4456374;26;20090;-74
2024/04/11 09:36:15;;;;;;;2.78;1.05;;;14.50;99.90;;;;;;4459442;26;20082;-75
2024/04/11 09:38:19;;;;;;;3.92;1.48;;;14.40;99.90;;;;;;4460553;26;20012;-75
2024/04/11 09:40:26;;;;;;;7.93;2.10;;;14.50;99.90;;;;;;4458300;26;20081;-74
2024/04/11 09:42:27;;;;;;;5.18;1.70;;;14.40;99.90;;;;;;4450329;26;20027;-75
2024/04/11 09:44:31;;;;;;;5.53;1.50;;;14.40;99.90;;;;;;4456319;26;20035;-70
2024/04/11 09:46:41;;;;;;;9.15;2.03;;;14.50;99.90;;;;;;4457490;26;20011;-75
2024/04/11 09:48:44;;;;;;;6.65;1.80;;;14.50;99.90;;;;;;4490969;26;20459;-74
2024/04/11 09:50:48;;;;;;;6.07;1.50;;;14.50;99.90;;;;;;4485390;26;20043;-75
2024/04/11 09:52:48;;;;;;;3.20;1.17;;;14.50;99.90;;;;;;4485325;26;20480;-74
2024/04/11 09:54:51;;;;;;;4.50;1.70;;;14.60;99.90;;;;;;4493832;26;20007;-74
2024/04/11 09:56:52;;;;;;;5.43;1.70;;;14.60;99.90;;;;;;4496509;26;20014;-74
2024/04/11 09:58:53;;;;;;;4.15;1.20;;;14.70;99.90;;;;;;4488867;26;20011;-75
2024/04/11 10:01:06;;;;;;;5.25;1.45;;;14.70;99.90;;;;;;4492806;26;20479;-74
2024/04/11 10:03:07;;;;;;;2.80;1.13;;;14.70;99.90;;;;;;4489509;26;20010;-74
2024/04/11 10:05:16;;;;;;;6.07;1.30;;;14.70;99.90;;;;;;4487479;26;20344;-73
2024/04/11 10:07:19;;;;;;;4.03;1.40;;;14.80;99.90;;;;;;4489557;26;20006;-74
2024/04/11 10:09:29;;;;;;;4.28;1.30;;;14.80;99.90;;;;;;4490730;26;20014;-74
2024/04/11 10:11:33;;;;;;;5.32;1.60;;;14.80;99.90;;;;;;4488068;26;20011;-74
2024/04/11 10:13:41;;;;;;;4.93;1.30;;;14.80;99.90;;;;;;4488167;26;20018;-74
2024/04/11 10:15:43;;;;;;;3.28;1.35;;;14.80;99.90;;;;;;4489408;26;20361;-74
2024/04/11 10:18:01;;;;;;;4.82;1.40;;;14.80;99.90;;;;;;4483564;26;20008;-74
2024/04/11 10:20:12;;;;;;;4.60;1.25;;;14.80;99.90;;;;;;4499876;26;20475;-75
2024/04/11 10:22:20;;;;;;;7.57;1.67;;;14.80;99.90;;;;;;4477153;26;20444;-73
2024/04/11 10:24:28;;;;;;;6.70;1.80;;;14.80;99.90;;;;;;4483649;26;20004;-74
2024/04/11 10:26:32;;;;;;;6.00;1.70;;;14.80;99.90;;;;;;4448107;26;20036;-73
2024/04/11 10:28:43;;;;;;;5.05;1.38;;;14.80;99.90;;;;;;4450481;26;20004;-74
2024/04/11 10:30:50;;;;;;;5.70;1.80;;;14.80;99.90;;;;;;4455754;26;20041;-74
2024/04/11 10:32:51;;;;;;;2.92;1.17;;;14.90;99.90;;;;;;4479546;26;20456;-74
2024/04/11 10:34:56;;;;;;;10.68;1.63;;;14.90;99.90;;;;;;4450025;26;20016;-74
2024/04/11 10:37:03;;;;;;;6.25;2.03;;;14.90;99.90;;;;;;4448607;26;20349;-75